createdAt,value
2018-08-09T00:01:58.689Z,25.11
2018-08-09T00:07:02.201Z,25.08
2018-08-09T00:12:05.687Z,25.04
2018-08-09T00:17:09.173Z,24.82
2018-08-09T00:22:12.636Z,24.43
2018-08-09T00:27:16.145Z,24.48
2018-08-09T00:32:19.628Z,24.61
2018-08-09T00:37:23.131Z,24.68
2018-08-09T00:42:26.650Z,24.55
2018-08-09T00:47:30.163Z,24.36
2018-08-09T00:52:33.703Z,24.33
2018-08-09T00:57:37.219Z,24.03
2018-08-09T01:02:40.758Z,23.95
2018-08-09T01:07:44.309Z,23.81
2018-08-09T01:12:47.797Z,23.76
2018-08-09T01:17:51.274Z,24.05
2018-08-09T01:22:54.749Z,24.14
2018-08-09T01:27:58.217Z,24.17
2018-08-09T01:33:01.724Z,24.15
2018-08-09T01:38:05.253Z,24.00
2018-08-09T01:43:20.028Z,23.80
2018-08-09T01:48:23.989Z,23.95
2018-08-09T01:53:27.475Z,24.02
2018-08-09T01:58:30.980Z,24.03
2018-08-09T02:03:35.605Z,24.05
2018-08-09T02:08:39.111Z,23.99
2018-08-09T02:13:43.337Z,23.94
2018-08-09T02:18:46.886Z,23.91
2018-08-09T02:23:50.354Z,23.83
2018-08-09T02:28:53.970Z,23.78
2018-08-09T02:33:58.012Z,23.60
2018-08-09T02:39:09.554Z,23.59
2018-08-09T02:44:13.337Z,23.61
2018-08-09T02:49:16.838Z,23.56
2018-08-09T02:54:20.604Z,23.17
2018-08-09T02:59:24.124Z,23.01
2018-08-09T03:04:27.613Z,23.19
2018-08-09T03:09:31.134Z,23.24
2018-08-09T03:14:34.595Z,23.01
2018-08-09T03:19:38.087Z,23.12
2018-08-09T03:24:41.654Z,23.13
2018-08-09T03:29:45.241Z,23.09
2018-08-09T03:34:48.770Z,22.99
2018-08-09T03:39:52.334Z,22.79
2018-08-09T03:44:55.903Z,22.86
2018-08-09T03:49:59.391Z,22.86
2018-08-09T03:55:06.584Z,22.89
2018-08-09T04:00:10.478Z,22.88
2018-08-09T04:05:14.001Z,22.61
2018-08-09T04:10:17.564Z,22.63
2018-08-09T04:15:21.057Z,22.74
2018-08-09T04:20:24.582Z,22.78
2018-08-09T04:25:28.120Z,22.55
2018-08-09T04:30:31.537Z,22.38
2018-08-09T04:35:34.963Z,22.34
2018-08-09T04:40:39.290Z,22.36
2018-08-09T04:45:42.868Z,22.48
2018-08-09T04:50:46.390Z,22.49
2018-08-09T04:55:49.944Z,22.53
2018-08-09T05:00:53.799Z,22.63
2018-08-09T05:05:57.327Z,22.70
2018-08-09T05:11:00.784Z,22.76
2018-08-09T05:16:04.313Z,22.78
2018-08-09T05:21:08.046Z,22.96
2018-08-09T05:26:11.537Z,23.10
2018-08-09T05:31:15.065Z,23.17
2018-08-09T05:36:18.650Z,23.22
2018-08-09T05:41:22.192Z,23.31
2018-08-09T05:46:25.792Z,23.36
2018-08-09T05:51:29.383Z,23.48
2018-08-09T05:56:33.084Z,23.57
2018-08-09T06:01:36.578Z,23.88
2018-08-09T06:06:40.160Z,24.04
2018-08-09T06:11:43.678Z,24.20
2018-08-09T06:16:47.224Z,24.33
2018-08-09T06:21:50.830Z,24.45
2018-08-09T06:26:54.395Z,24.56
2018-08-09T06:31:58.026Z,24.67
2018-08-09T06:37:01.538Z,24.77
2018-08-09T06:42:05.122Z,24.89
2018-08-09T06:47:08.731Z,25.02
2018-08-09T06:52:12.197Z,25.12
2018-08-09T06:57:15.688Z,25.22
2018-08-09T07:02:19.268Z,25.33
2018-08-09T07:07:22.781Z,25.43
2018-08-09T07:12:26.485Z,25.53
2018-08-09T07:17:29.973Z,25.64
2018-08-09T07:22:33.905Z,25.74
2018-08-09T07:27:37.716Z,25.87
2018-08-09T07:32:42.063Z,26.02
2018-08-09T07:37:45.576Z,26.02
2018-08-09T07:42:49.090Z,26.12
2018-08-09T07:47:52.634Z,26.27
2018-08-09T07:52:56.162Z,26.35
2018-08-09T07:57:59.697Z,26.52
2018-08-09T08:03:03.224Z,26.61
2018-08-09T08:08:06.717Z,26.74
2018-08-09T08:13:10.293Z,26.86
2018-08-09T08:18:13.805Z,27.04
2018-08-09T08:23:17.398Z,27.20
2018-08-09T08:28:21.022Z,27.32
2018-08-09T08:33:24.604Z,27.45
2018-08-09T08:38:28.178Z,27.60
2018-08-09T08:43:31.709Z,27.72
2018-08-09T08:48:35.200Z,27.82
2018-08-09T08:53:38.718Z,28.03
2018-08-09T08:58:42.207Z,28.26
2018-08-09T09:03:45.733Z,28.34
2018-08-09T09:08:49.329Z,28.44
2018-08-09T09:13:52.828Z,28.61
2018-08-09T09:18:56.400Z,28.81
2018-08-09T09:23:59.895Z,29.03
2018-08-09T09:29:03.440Z,29.21
2018-08-09T09:34:06.903Z,29.46
2018-08-09T09:39:10.959Z,29.58
2018-08-09T09:44:14.463Z,29.79
2018-08-09T09:49:18.014Z,29.96
2018-08-09T09:54:21.491Z,30.18
2018-08-09T09:59:24.985Z,30.29
2018-08-09T10:04:28.496Z,30.46
2018-08-09T10:09:32.030Z,30.68
2018-08-09T10:14:35.509Z,30.85
2018-08-09T10:19:39.069Z,31.11
2018-08-09T10:24:42.641Z,31.30
2018-08-09T10:29:46.252Z,31.48
2018-08-09T10:34:49.793Z,31.68
2018-08-09T10:39:54.317Z,31.77
2018-08-09T10:44:57.900Z,31.88
2018-08-09T10:50:02.106Z,32.13
2018-08-09T10:55:05.575Z,32.37
2018-08-09T11:00:11.425Z,32.55
2018-08-09T11:05:14.873Z,32.72
2018-08-09T11:10:18.362Z,32.89
2018-08-09T11:15:21.891Z,33.05
2018-08-09T11:20:25.331Z,33.12
2018-08-09T11:25:28.868Z,33.41
2018-08-09T11:30:32.622Z,33.63
2018-08-09T11:35:36.303Z,33.88
2018-08-09T11:40:39.837Z,34.18
2018-08-09T11:45:43.369Z,34.57
2018-08-09T11:50:46.990Z,35.05
2018-08-09T11:55:50.563Z,39.65
2018-08-09T12:00:54.098Z,49.71
2018-08-09T12:05:57.757Z,49.92
2018-08-09T12:11:01.285Z,48.42
2018-08-09T12:16:05.232Z,51.48
2018-08-09T12:21:08.928Z,53.07
2018-08-09T12:26:12.661Z,52.85
2018-08-09T12:31:16.372Z,47.84
2018-08-09T12:36:20.026Z,43.63
2018-08-09T12:41:23.544Z,40.20
2018-08-09T12:46:27.122Z,41.16
2018-08-09T12:51:30.694Z,41.58
2018-08-09T12:56:34.201Z,40.38
2018-08-09T13:01:37.747Z,43.26
2018-08-09T13:06:41.444Z,44.18
2018-08-09T13:11:45.069Z,44.53
2018-08-09T13:16:48.718Z,44.54
2018-08-09T13:21:52.220Z,41.85
2018-08-09T13:26:55.730Z,43.76
2018-08-09T13:31:59.308Z,42.67
2018-08-09T13:37:02.870Z,40.35
2018-08-09T13:42:07.070Z,38.90
2018-08-09T13:47:10.733Z,39.23
2018-08-09T13:52:14.329Z,39.11
2018-08-09T13:57:17.905Z,38.64
2018-08-09T14:02:21.587Z,38.41
2018-08-09T14:07:25.144Z,38.04
2018-08-09T14:12:28.757Z,37.73
2018-08-09T14:17:32.306Z,37.81
2018-08-09T14:22:35.872Z,37.72
2018-08-09T14:27:39.435Z,37.58
2018-08-09T14:32:44.621Z,37.64
2018-08-09T14:37:48.283Z,37.50
2018-08-09T14:42:51.773Z,37.59
2018-08-09T14:47:55.285Z,37.52
2018-08-09T14:52:58.819Z,37.38
2018-08-09T14:58:02.342Z,37.31
2018-08-09T15:03:05.946Z,37.20
2018-08-09T15:08:09.638Z,36.97
2018-08-09T15:13:13.190Z,36.86
2018-08-09T15:18:16.749Z,36.29
2018-08-09T15:23:20.309Z,36.29
2018-08-09T15:28:24.069Z,36.29
2018-08-09T15:33:27.627Z,36.30
2018-08-09T15:38:31.379Z,35.78
2018-08-09T15:43:35.027Z,36.84
2018-08-09T15:48:38.906Z,36.75
2018-08-09T15:53:42.533Z,36.59
2018-08-09T15:58:46.117Z,36.42
2018-08-09T16:03:49.646Z,37.60
2018-08-09T16:08:53.269Z,38.35
2018-08-09T16:13:56.781Z,36.63
2018-08-09T16:19:00.295Z,35.93
2018-08-09T16:24:04.073Z,35.61
2018-08-09T16:29:07.991Z,38.05
2018-08-09T16:34:11.510Z,36.48
2018-08-09T16:39:15.267Z,35.73
2018-08-09T16:44:18.952Z,35.34
2018-08-09T16:49:22.565Z,35.03
2018-08-09T16:54:26.315Z,34.71
2018-08-09T16:59:30.021Z,34.43
2018-08-09T17:04:33.964Z,34.24
2018-08-09T17:09:37.705Z,34.07
2018-08-09T17:14:41.868Z,33.94
2018-08-09T17:19:45.586Z,33.90
2018-08-09T17:24:49.247Z,33.83
2018-08-09T17:29:52.811Z,33.75
2018-08-09T17:34:56.449Z,33.84
2018-08-09T17:39:59.992Z,33.60
2018-08-09T17:45:04.368Z,33.43
2018-08-09T17:50:08.425Z,33.21
2018-08-09T17:55:13.944Z,33.03
2018-08-09T18:00:26.764Z,32.88
2018-08-09T18:05:31.623Z,32.75
2018-08-09T18:10:36.580Z,31.93
2018-08-09T18:15:40.093Z,30.33
2018-08-09T18:20:43.981Z,29.39
2018-08-09T18:25:51.957Z,28.62
2018-08-09T18:30:56.172Z,28.26
2018-08-09T18:35:59.640Z,27.85
2018-08-09T18:51:54.521Z,24.24
2018-08-09T18:57:00.784Z,24.58
2018-08-09T19:02:06.874Z,24.72
2018-08-09T19:07:12.438Z,24.99
2018-08-09T19:12:16.029Z,25.02
2018-08-09T19:17:20.683Z,25.20
2018-08-09T19:22:24.490Z,25.45
2018-08-09T19:27:28.126Z,25.76
2018-08-09T19:32:32.453Z,25.86
2018-08-09T19:37:35.993Z,26.12
2018-08-09T19:42:40.354Z,26.21
2018-08-09T19:47:43.999Z,26.22
2018-08-09T19:52:47.622Z,26.15
2018-08-09T19:57:51.612Z,26.12
2018-08-09T20:02:55.188Z,26.03
2018-08-09T20:07:58.802Z,25.59
2018-08-09T20:13:02.345Z,25.68
2018-08-09T20:18:05.885Z,25.99
2018-08-09T20:23:10.256Z,25.99
2018-08-09T20:28:14.294Z,25.94
2018-08-09T20:33:18.442Z,25.94
2018-08-09T20:38:21.935Z,25.92
2018-08-09T20:43:25.524Z,25.85
2018-08-09T20:48:29.262Z,25.48
2018-08-09T20:53:33.143Z,25.37
2018-08-09T20:58:38.028Z,25.37
2018-08-09T21:03:42.690Z,25.54
2018-08-09T21:08:46.193Z,25.52
2018-08-09T21:13:49.798Z,25.48
2018-08-09T21:18:53.537Z,25.38
2018-08-09T21:23:57.583Z,25.53
2018-08-09T21:29:01.049Z,25.52
2018-08-09T21:34:04.773Z,25.50
2018-08-09T21:39:10.680Z,25.48
2018-08-09T21:44:14.268Z,25.44
2018-08-09T21:49:17.740Z,25.35
2018-08-09T21:54:21.241Z,25.28
2018-08-09T21:59:24.841Z,25.24
2018-08-09T22:04:28.399Z,25.17
2018-08-09T22:09:37.291Z,24.94
2018-08-09T22:14:46.433Z,24.94
2018-08-09T22:20:01.881Z,25.00
2018-08-09T22:25:07.865Z,24.97
2018-08-09T22:30:14.942Z,24.93
2018-08-09T22:35:18.510Z,24.78
2018-08-09T22:40:22.986Z,24.88
2018-08-09T22:45:26.515Z,24.84
2018-08-09T22:50:30.081Z,24.71
2018-08-09T22:55:33.905Z,24.64
2018-08-09T23:00:37.392Z,24.54
2018-08-09T23:05:41.061Z,24.06
2018-08-09T23:10:45.179Z,23.92
2018-08-09T23:15:48.762Z,24.01
2018-08-09T23:20:52.308Z,23.97
2018-08-09T23:25:55.849Z,23.87
2018-08-09T23:31:00.275Z,24.04
2018-08-09T23:36:03.799Z,24.12
2018-08-09T23:41:07.450Z,24.48
2018-08-09T23:46:10.939Z,24.63
2018-08-09T23:51:14.425Z,24.63
2018-08-09T23:56:18.002Z,24.49
